createdAt,value
2023-05-10T00:00:08.480Z,93.70
2023-05-10T00:02:36.813Z,93.70
2023-05-10T00:05:07.720Z,93.70
2023-05-10T00:07:35.959Z,93.80
2023-05-10T00:10:04.376Z,93.80
2023-05-10T00:12:32.661Z,93.80
2023-05-10T00:15:00.968Z,93.90
2023-05-10T00:17:29.328Z,94.00
2023-05-10T00:19:57.726Z,94.00
2023-05-10T00:22:28.089Z,94.00
2023-05-10T00:24:56.333Z,94.10
2023-05-10T00:27:24.715Z,94.00
2023-05-10T00:29:53.014Z,94.00
2023-05-10T00:32:21.563Z,94.00
2023-05-10T00:34:49.939Z,94.10
2023-05-10T00:37:18.258Z,94.00
2023-05-10T00:39:48.323Z,94.10
2023-05-10T00:42:16.937Z,94.10
2023-05-10T00:44:45.310Z,94.10
2023-05-10T00:47:13.713Z,94.10
2023-05-10T00:49:42.944Z,94.20
2023-05-10T00:52:11.705Z,94.20
2023-05-10T00:54:40.212Z,94.30
2023-05-10T00:57:10.132Z,94.40
2023-05-10T00:59:38.584Z,94.50
2023-05-10T01:02:08.532Z,94.50
2023-05-10T01:04:38.102Z,94.70
2023-05-10T01:07:06.558Z,94.30
2023-05-10T01:09:35.793Z,94.30
2023-05-10T01:12:04.920Z,94.50
2023-05-10T01:14:35.316Z,94.50
2023-05-10T01:17:04.242Z,94.50
2023-05-10T01:19:35.817Z,94.50
2023-05-10T01:22:13.306Z,94.50
2023-05-10T01:25:02.997Z,94.40
2023-05-10T01:28:09.833Z,94.30
2023-05-10T01:31:06.922Z,94.40
2023-05-10T01:33:41.143Z,94.40
2023-05-10T01:36:18.014Z,94.60
2023-05-10T01:38:52.324Z,94.60
2023-05-10T01:41:27.055Z,94.70
2023-05-10T01:44:02.765Z,94.70
2023-05-10T01:46:37.056Z,94.60
2023-05-10T01:49:12.603Z,94.70
2023-05-10T01:51:47.164Z,94.70
2023-05-10T01:54:19.129Z,94.80
2023-05-10T01:56:49.875Z,94.80
2023-05-10T01:59:21.280Z,94.90
2023-05-10T02:01:50.694Z,95.00
2023-05-10T02:04:23.907Z,94.90
2023-05-10T02:06:55.087Z,95.00
2023-05-10T02:09:25.458Z,95.00
2023-05-10T02:11:55.032Z,94.90
2023-05-10T02:14:25.344Z,94.90
2023-05-10T02:16:56.370Z,95.00
2023-05-10T02:19:27.142Z,95.00
2023-05-10T02:21:57.298Z,95.00
2023-05-10T02:24:27.293Z,94.80
2023-05-10T02:26:57.736Z,94.70
2023-05-10T02:29:28.053Z,94.80
2023-05-10T02:31:58.996Z,95.00
2023-05-10T02:34:30.143Z,94.90
2023-05-10T02:36:59.603Z,94.90
2023-05-10T02:39:30.625Z,94.90
2023-05-10T02:42:00.340Z,94.90
2023-05-10T02:44:32.012Z,94.90
2023-05-10T02:47:00.968Z,94.90
2023-05-10T02:49:30.774Z,94.80
2023-05-10T02:52:03.270Z,94.70
2023-05-10T02:54:35.114Z,94.90
2023-05-10T02:57:06.545Z,95.00
2023-05-10T02:59:35.337Z,94.90
2023-05-10T03:02:05.185Z,94.80
2023-05-10T03:04:35.276Z,94.80
2023-05-10T03:07:04.098Z,94.70
2023-05-10T03:09:33.161Z,94.70
2023-05-10T03:12:06.138Z,94.70
2023-05-10T03:14:47.585Z,94.70
2023-05-10T03:17:24.962Z,94.60
2023-05-10T03:19:57.101Z,94.80
2023-05-10T03:22:30.351Z,94.80
2023-05-10T03:25:00.050Z,94.80
2023-05-10T03:27:30.214Z,94.80
2023-05-10T03:29:59.872Z,94.70
2023-05-10T03:32:29.134Z,94.90
2023-05-10T03:34:58.900Z,94.50
2023-05-10T03:37:27.118Z,94.60
2023-05-10T03:39:55.359Z,94.40
2023-05-10T03:42:23.660Z,94.20
2023-05-10T03:44:51.947Z,94.20
2023-05-10T03:47:20.833Z,94.40
2023-05-10T03:49:49.231Z,94.30
2023-05-10T03:52:19.097Z,94.40
2023-05-10T03:54:47.459Z,94.30
2023-05-10T03:57:15.866Z,94.30
2023-05-10T03:59:44.095Z,94.20
2023-05-10T04:02:12.319Z,94.20
2023-05-10T04:04:40.578Z,94.10
2023-05-10T04:07:08.873Z,94.10
2023-05-10T04:09:38.477Z,94.00
2023-05-10T04:12:09.451Z,93.80
2023-05-10T04:14:39.276Z,93.90
2023-05-10T04:17:07.679Z,93.90
2023-05-10T04:19:36.232Z,93.80
2023-05-10T04:22:05.133Z,93.70
2023-05-10T04:24:33.417Z,93.50
2023-05-10T04:27:03.443Z,93.70
2023-05-10T04:29:31.906Z,93.80
2023-05-10T04:32:00.138Z,93.80
2023-05-10T04:34:28.356Z,93.80
2023-05-10T04:36:56.839Z,93.80
2023-05-10T04:39:25.151Z,93.80
2023-05-10T04:41:53.967Z,93.80
2023-05-10T04:44:23.899Z,93.70
2023-05-10T04:46:52.336Z,93.70
2023-05-10T04:49:21.088Z,93.80
2023-05-10T04:51:49.808Z,93.80
2023-05-10T04:54:18.389Z,93.80
2023-05-10T04:56:49.268Z,93.60
2023-05-10T04:59:18.353Z,93.60
2023-05-10T05:01:48.705Z,93.70
2023-05-10T05:04:17.083Z,93.70
2023-05-10T05:06:45.828Z,93.60
2023-05-10T05:09:14.082Z,93.50
2023-05-10T05:14:14.920Z,93.40
2023-05-10T05:16:43.062Z,93.60
2023-05-10T05:19:12.607Z,93.20
2023-05-10T05:21:40.760Z,93.20
2023-05-10T05:24:09.473Z,93.20
2023-05-10T05:26:37.702Z,93.20
2023-05-10T05:29:05.907Z,93.20
2023-05-10T05:31:34.116Z,93.10
2023-05-10T05:34:02.437Z,93.00
2023-05-10T05:36:32.361Z,93.00
2023-05-10T05:39:00.759Z,93.00
2023-05-10T05:41:28.864Z,92.90
2023-05-10T05:43:57.036Z,92.80
2023-05-10T05:46:25.246Z,92.80
2023-05-10T05:48:53.459Z,92.70
2023-05-10T05:51:21.603Z,92.70
2023-05-10T05:53:51.181Z,92.60
2023-05-10T05:56:25.023Z,92.60
2023-05-10T05:58:53.298Z,92.60
2023-05-10T06:01:22.028Z,92.50
2023-05-10T06:03:51.877Z,92.50
2023-05-10T06:06:21.548Z,92.50
2023-05-10T06:08:51.081Z,92.40
2023-05-10T06:11:19.224Z,92.20
2023-05-10T06:13:48.027Z,92.20
2023-05-10T06:16:16.194Z,92.20
2023-05-10T06:18:44.409Z,92.30
2023-05-10T06:21:12.606Z,92.30
2023-05-10T06:23:40.768Z,92.30
2023-05-10T06:26:10.942Z,92.20
2023-05-10T06:28:40.031Z,92.10
2023-05-10T06:31:08.517Z,92.00
2023-05-10T06:33:36.758Z,92.00
2023-05-10T06:36:05.479Z,91.90
2023-05-10T06:38:34.300Z,91.90
2023-05-10T06:41:02.670Z,91.80
2023-05-10T06:43:32.180Z,91.70
2023-05-10T06:46:00.570Z,91.80
2023-05-10T06:48:29.111Z,91.60
2023-05-10T06:50:57.315Z,91.60
2023-05-10T06:53:25.447Z,91.60
2023-05-10T06:55:53.614Z,91.50
2023-05-10T06:58:21.737Z,91.50
2023-05-10T07:00:51.657Z,91.40
2023-05-10T07:03:20.212Z,91.30
2023-05-10T07:05:48.380Z,91.20
2023-05-10T07:08:16.561Z,91.20
2023-05-10T07:10:44.723Z,91.40
2023-05-10T07:13:12.920Z,91.70
2023-05-10T07:15:41.172Z,91.80
2023-05-10T07:18:10.715Z,91.80
2023-05-10T07:20:38.960Z,91.90
2023-05-10T07:23:07.131Z,92.00
2023-05-10T07:25:35.342Z,92.00
2023-05-10T07:28:03.504Z,92.10
2023-05-10T07:30:31.738Z,92.10
2023-05-10T07:33:00.559Z,92.00
2023-05-10T07:35:30.154Z,92.10
2023-05-10T07:37:58.664Z,92.00
2023-05-10T07:40:26.898Z,92.10
2023-05-10T07:42:55.040Z,92.00
2023-05-10T07:45:23.905Z,91.90
2023-05-10T07:47:52.157Z,91.80
2023-05-10T07:50:20.362Z,91.80
2023-05-10T07:52:49.853Z,91.90
2023-05-10T07:55:20.134Z,91.90
2023-05-10T07:57:48.304Z,92.10
2023-05-10T08:00:19.768Z,91.70
2023-05-10T08:02:48.279Z,91.70
2023-05-10T08:05:16.900Z,91.80
2023-05-10T08:07:45.406Z,91.80
2023-05-10T08:10:14.982Z,91.80
2023-05-10T08:12:43.119Z,91.70
2023-05-10T08:15:12.279Z,91.60
2023-05-10T08:17:40.648Z,91.60
2023-05-10T08:20:09.546Z,91.50
2023-05-10T08:22:38.372Z,91.50
2023-05-10T08:25:07.644Z,91.40
2023-05-10T08:27:37.118Z,91.30
2023-05-10T08:30:06.004Z,91.20
2023-05-10T08:32:34.188Z,91.30
2023-05-10T08:35:02.318Z,91.10
2023-05-10T08:37:33.194Z,90.80
2023-05-10T08:40:01.421Z,90.70
2023-05-10T08:42:32.441Z,90.80
2023-05-10T08:45:02.559Z,90.90
2023-05-10T08:47:31.801Z,91.00
2023-05-10T08:50:02.056Z,91.00
2023-05-10T08:52:31.958Z,91.00
2023-05-10T08:55:00.595Z,90.90
2023-05-10T08:57:28.914Z,90.80
2023-05-10T08:59:57.073Z,90.90
2023-05-10T09:02:27.650Z,91.10
2023-05-10T09:04:55.919Z,91.20
2023-05-10T09:07:24.337Z,91.30
2023-05-10T09:09:53.588Z,91.40
2023-05-10T09:12:21.763Z,91.40
2023-05-10T09:14:51.596Z,91.20
2023-05-10T09:17:20.022Z,91.20
2023-05-10T09:19:49.513Z,91.00
2023-05-10T09:22:18.339Z,90.90
2023-05-10T09:24:46.828Z,90.80
2023-05-10T09:27:14.950Z,90.60
2023-05-10T09:29:44.607Z,90.60
2023-05-10T09:32:13.884Z,90.70
2023-05-10T09:34:43.199Z,90.50
2023-05-10T09:37:12.736Z,90.30
2023-05-10T09:39:42.263Z,90.30
2023-05-10T09:42:11.962Z,89.70
2023-05-10T09:44:41.818Z,89.10
2023-05-10T09:47:10.459Z,89.20
2023-05-10T09:49:38.572Z,89.00
2023-05-10T09:52:08.177Z,88.50
2023-05-10T09:54:37.848Z,88.20
2023-05-10T09:57:06.189Z,88.00
2023-05-10T09:59:36.730Z,87.80
2023-05-10T10:02:05.052Z,87.50
2023-05-10T10:04:33.606Z,87.40
2023-05-10T10:07:03.743Z,87.70
2023-05-10T10:09:32.394Z,87.20
2023-05-10T10:12:02.883Z,87.40
2023-05-10T10:14:31.373Z,86.10
2023-05-10T10:19:36.040Z,85.20
2023-05-10T10:22:04.500Z,84.50
2023-05-10T10:24:32.604Z,83.30
2023-05-10T10:27:21.551Z,82.60
2023-05-10T10:30:01.421Z,81.60
2023-05-10T10:32:39.885Z,81.60
2023-05-10T10:35:10.322Z,80.80
2023-05-10T10:37:46.597Z,80.20
2023-05-10T10:40:28.290Z,80.00
2023-05-10T10:42:58.736Z,79.30
2023-05-10T10:45:28.402Z,79.40
2023-05-10T10:48:23.965Z,78.60
2023-05-10T10:50:59.593Z,77.80
2023-05-10T10:53:29.550Z,78.30
2023-05-10T10:56:10.155Z,78.50
2023-05-10T10:58:40.988Z,78.00
2023-05-10T11:01:14.156Z,77.70
2023-05-10T11:03:43.068Z,77.30
2023-05-10T11:06:11.303Z,76.90
2023-05-10T11:08:45.808Z,76.90
2023-05-10T11:11:16.696Z,76.70
2023-05-10T11:13:50.910Z,76.50
2023-05-10T11:16:21.046Z,76.00
2023-05-10T11:19:11.247Z,75.30
2023-05-10T11:21:47.538Z,74.30
2023-05-10T11:24:17.078Z,74.40
2023-05-10T11:26:45.517Z,73.80
2023-05-10T11:29:16.483Z,73.10
2023-05-10T11:31:45.993Z,72.80
2023-05-10T11:34:24.603Z,72.70
2023-05-10T11:36:54.761Z,72.70
2023-05-10T11:39:23.321Z,72.50
2023-05-10T11:41:51.639Z,72.40
2023-05-10T11:44:21.331Z,72.00
2023-05-10T11:46:50.712Z,71.60
2023-05-10T11:49:19.057Z,71.50
2023-05-10T11:51:48.050Z,71.60
2023-05-10T11:54:16.286Z,71.20
2023-05-10T11:56:44.432Z,71.40
2023-05-10T11:59:12.545Z,71.10
2023-05-10T12:01:43.495Z,70.40
2023-05-10T12:04:12.495Z,70.10
2023-05-10T12:06:43.352Z,69.70
2023-05-10T12:09:11.494Z,69.70
2023-05-10T12:11:43.499Z,69.60
2023-05-10T12:14:12.906Z,69.20
2023-05-10T12:16:42.529Z,69.10
2023-05-10T12:19:10.949Z,68.60
2023-05-10T12:21:39.726Z,68.40
2023-05-10T12:24:08.047Z,68.40
2023-05-10T12:26:38.002Z,68.30
2023-05-10T12:29:16.498Z,68.00
2023-05-10T12:31:59.491Z,67.10
2023-05-10T12:34:28.468Z,66.60
2023-05-10T12:36:57.368Z,66.50
2023-05-10T12:39:25.934Z,66.00
2023-05-10T12:41:54.477Z,65.30
2023-05-10T12:44:22.749Z,64.50
2023-05-10T12:46:50.953Z,64.30
2023-05-10T12:49:20.612Z,64.10
2023-05-10T12:51:48.765Z,64.10
2023-05-10T12:54:16.896Z,64.10
2023-05-10T12:56:45.484Z,63.70
2023-05-10T12:59:13.600Z,63.70
2023-05-10T13:01:41.828Z,63.30
2023-05-10T13:04:10.003Z,64.00
2023-05-10T13:06:39.532Z,63.70
2023-05-10T13:09:07.994Z,63.60
2023-05-10T13:11:36.258Z,63.20
2023-05-10T13:14:05.158Z,62.50
2023-05-10T13:16:33.775Z,61.40
2023-05-10T13:19:02.072Z,61.10
2023-05-10T13:21:30.661Z,61.10
2023-05-10T13:24:00.995Z,61.20
2023-05-10T13:26:29.431Z,61.30
2023-05-10T13:28:57.656Z,61.60
2023-05-10T13:31:25.887Z,61.70
2023-05-10T13:33:53.984Z,61.20
2023-05-10T13:36:22.175Z,61.00
2023-05-10T13:38:50.271Z,60.80
2023-05-10T13:41:19.941Z,60.50
2023-05-10T13:43:49.599Z,60.00
2023-05-10T13:46:17.782Z,59.80
2023-05-10T13:48:45.978Z,59.90
2023-05-10T13:51:14.236Z,59.60
2023-05-10T13:53:42.436Z,59.40
2023-05-10T13:56:10.567Z,59.20
2023-05-10T13:58:40.068Z,58.30
2023-05-10T14:01:08.721Z,57.10
2023-05-10T14:03:36.895Z,56.50
2023-05-10T14:06:05.451Z,56.60
2023-05-10T14:08:33.601Z,56.50
2023-05-10T14:11:01.723Z,56.10
2023-05-10T14:13:30.085Z,55.40
2023-05-10T14:16:01.517Z,55.30
2023-05-10T14:18:29.889Z,54.70
2023-05-10T14:20:58.112Z,54.10
2023-05-10T14:23:26.731Z,53.40
2023-05-10T14:25:55.091Z,53.10
2023-05-10T14:28:24.525Z,52.90
2023-05-10T14:30:53.084Z,52.90
2023-05-10T14:33:22.785Z,52.80
2023-05-10T14:35:51.202Z,53.00
2023-05-10T14:38:19.472Z,52.90
2023-05-10T14:40:47.997Z,52.50
2023-05-10T14:43:16.179Z,52.50
2023-05-10T14:45:44.374Z,52.40
2023-05-10T14:48:16.335Z,52.50
2023-05-10T14:50:46.059Z,53.00
2023-05-10T14:53:14.447Z,53.10
2023-05-10T14:55:42.716Z,52.90
2023-05-10T14:58:10.822Z,52.90
2023-05-10T15:00:38.953Z,52.30
2023-05-10T15:03:07.800Z,51.90
2023-05-10T15:05:38.209Z,52.00
2023-05-10T15:08:08.184Z,52.50
2023-05-10T15:10:36.310Z,53.00
2023-05-10T15:13:06.056Z,53.00
2023-05-10T15:15:34.293Z,52.50
2023-05-10T15:18:02.538Z,52.60
2023-05-10T15:20:30.808Z,52.70
2023-05-10T15:22:58.953Z,53.10
2023-05-10T15:25:29.681Z,53.20
2023-05-10T15:27:57.822Z,53.10
2023-05-10T15:30:26.089Z,53.50
2023-05-10T15:32:54.590Z,53.20
2023-05-10T15:35:23.289Z,53.00
2023-05-10T15:37:51.590Z,52.90
2023-05-10T15:40:19.858Z,52.70
2023-05-10T15:42:49.372Z,52.20
2023-05-10T15:45:17.859Z,51.00
2023-05-10T15:47:46.399Z,50.10
2023-05-10T15:50:14.668Z,49.60
2023-05-10T15:52:43.230Z,49.50
2023-05-10T15:55:13.128Z,48.80
2023-05-10T15:57:42.505Z,48.70
2023-05-10T16:00:13.978Z,48.80
2023-05-10T16:02:42.615Z,48.70
2023-05-10T16:05:11.233Z,49.10
2023-05-10T16:07:40.161Z,49.40
2023-05-10T16:10:10.676Z,49.70
2023-05-10T16:12:40.413Z,50.30
2023-05-10T16:15:09.857Z,50.70
2023-05-10T16:17:39.508Z,50.90
2023-05-10T16:20:08.996Z,51.10
2023-05-10T16:22:37.275Z,51.60
2023-05-10T16:25:06.311Z,51.80
2023-05-10T16:27:34.514Z,51.90
2023-05-10T16:30:03.029Z,52.20
2023-05-10T16:32:31.590Z,52.50
2023-05-10T16:35:01.550Z,52.40
2023-05-10T16:37:29.732Z,52.40
2023-05-10T16:39:57.942Z,52.70
2023-05-10T16:42:26.116Z,53.00
2023-05-10T16:44:55.236Z,53.30
2023-05-10T16:47:26.507Z,53.70
2023-05-10T16:49:54.665Z,54.20
2023-05-10T16:52:24.479Z,54.60
2023-05-10T16:54:52.660Z,54.90
2023-05-10T16:57:20.866Z,55.30
2023-05-10T16:59:49.270Z,55.60
2023-05-10T17:02:17.554Z,56.00
2023-05-10T17:04:46.170Z,56.30
2023-05-10T17:07:14.753Z,56.80
2023-05-10T17:09:44.856Z,57.20
2023-05-10T17:12:13.039Z,57.50
2023-05-10T17:14:41.196Z,57.70
2023-05-10T17:17:09.399Z,57.90
2023-05-10T17:19:37.622Z,58.30
2023-05-10T17:22:05.852Z,58.50
2023-05-10T17:24:34.025Z,58.80
2023-05-10T17:27:04.334Z,58.90
2023-05-10T17:29:32.798Z,59.00
2023-05-10T17:32:01.106Z,59.10
2023-05-10T17:34:29.377Z,59.20
2023-05-10T17:36:57.955Z,59.20
2023-05-10T17:39:26.077Z,59.30
2023-05-10T17:41:54.242Z,59.50
2023-05-10T17:44:24.830Z,59.60
2023-05-10T17:46:52.981Z,59.30
2023-05-10T17:49:21.128Z,59.20
2023-05-10T17:51:49.248Z,59.20
2023-05-10T17:54:17.912Z,59.20
2023-05-10T17:56:46.184Z,59.20
2023-05-10T17:59:14.371Z,59.10
2023-05-10T18:01:44.330Z,58.90
2023-05-10T18:04:12.703Z,59.20
2023-05-10T18:06:41.576Z,59.10
2023-05-10T18:09:09.778Z,59.20
2023-05-10T18:11:38.752Z,59.20
2023-05-10T18:14:06.920Z,59.80
2023-05-10T18:16:35.118Z,59.40
2023-05-10T18:19:04.783Z,59.40
2023-05-10T18:21:32.971Z,60.00
2023-05-10T18:24:01.498Z,59.50
2023-05-10T18:26:29.958Z,59.70
2023-05-10T18:29:01.536Z,59.70
2023-05-10T18:31:30.052Z,59.70
2023-05-10T18:33:58.598Z,60.00
2023-05-10T18:36:28.634Z,60.20
2023-05-10T18:38:56.856Z,60.20
2023-05-10T18:41:26.715Z,60.30
2023-05-10T18:43:54.923Z,60.40
2023-05-10T18:46:23.109Z,60.40
2023-05-10T18:48:51.580Z,60.80
2023-05-10T18:51:20.363Z,61.00
2023-05-10T18:53:50.013Z,61.20
2023-05-10T18:56:18.202Z,61.30
2023-05-10T18:58:46.466Z,61.30
2023-05-10T19:01:14.625Z,61.40
2023-05-10T19:03:42.791Z,61.60
2023-05-10T19:06:10.939Z,61.70
2023-05-10T19:08:39.065Z,61.80
2023-05-10T19:11:08.598Z,62.00
2023-05-10T19:13:36.824Z,62.10
2023-05-10T19:16:06.502Z,62.10
2023-05-10T19:18:34.956Z,62.30
2023-05-10T19:21:04.586Z,62.40
2023-05-10T19:23:34.352Z,62.50
2023-05-10T19:26:02.696Z,62.70
2023-05-10T19:28:32.335Z,62.90
2023-05-10T19:31:00.660Z,63.00
2023-05-10T19:33:28.970Z,63.00
2023-05-10T19:35:57.219Z,63.00
2023-05-10T19:38:26.311Z,62.90
2023-05-10T19:40:58.064Z,62.80
2023-05-10T19:43:26.787Z,62.70
2023-05-10T19:45:59.373Z,62.70
2023-05-10T19:48:28.065Z,62.60
2023-05-10T19:51:01.202Z,62.70
2023-05-10T19:53:29.726Z,62.90
2023-05-10T19:56:03.233Z,63.10
2023-05-10T19:58:31.424Z,63.30
2023-05-10T20:01:00.987Z,63.40
2023-05-10T20:03:29.523Z,63.70
2023-05-10T20:05:57.738Z,64.10
2023-05-10T20:08:40.652Z,64.70
2023-05-10T20:11:08.963Z,66.00
2023-05-10T20:13:37.097Z,66.30
2023-05-10T20:16:07.096Z,66.90
2023-05-10T20:18:35.286Z,67.50
2023-05-10T20:21:03.477Z,68.60
2023-05-10T20:23:31.664Z,68.40
2023-05-10T20:25:59.832Z,68.70
2023-05-10T20:28:28.828Z,69.00
2023-05-10T20:30:57.365Z,69.30
2023-05-10T20:33:26.873Z,69.30
2023-05-10T20:35:54.960Z,69.60
2023-05-10T20:38:23.149Z,69.90
2023-05-10T20:40:51.274Z,70.10
2023-05-10T20:43:21.232Z,70.40
2023-05-10T20:45:49.604Z,70.70
2023-05-10T20:48:17.917Z,70.90
2023-05-10T20:50:47.428Z,71.00
2023-05-10T20:53:15.564Z,71.30
2023-05-10T20:55:43.660Z,71.50
2023-05-10T20:58:11.770Z,71.80
2023-05-10T21:00:39.842Z,72.20
2023-05-10T21:03:08.228Z,72.60
2023-05-10T21:05:36.370Z,72.80
2023-05-10T21:08:06.432Z,73.00
2023-05-10T21:10:34.623Z,73.40
2023-05-10T21:13:02.783Z,73.40
2023-05-10T21:15:31.017Z,73.70
2023-05-10T21:18:00.059Z,73.80
2023-05-10T21:20:28.471Z,74.20
2023-05-10T21:22:56.619Z,74.40
2023-05-10T21:25:26.247Z,74.60
2023-05-10T21:27:54.383Z,74.80
2023-05-10T21:30:22.561Z,74.90
2023-05-10T21:32:50.860Z,75.00
2023-05-10T21:35:19.267Z,75.20
2023-05-10T21:37:47.452Z,75.40
2023-05-10T21:40:16.182Z,75.30
2023-05-10T21:42:49.137Z,75.30
2023-05-10T21:45:17.427Z,75.50
2023-05-10T21:47:45.598Z,75.70
2023-05-10T21:50:13.936Z,75.80
2023-05-10T21:52:42.133Z,76.00
2023-05-10T21:55:11.165Z,76.00
2023-05-10T21:57:39.304Z,76.00
2023-05-10T22:00:11.148Z,76.00
2023-05-10T22:02:39.328Z,76.10
2023-05-10T22:05:07.783Z,76.20
2023-05-10T22:07:35.907Z,76.30
2023-05-10T22:10:04.038Z,76.40
2023-05-10T22:12:32.156Z,77.10
2023-05-10T22:17:38.938Z,76.40
2023-05-10T22:20:08.565Z,76.30
2023-05-10T22:22:37.481Z,76.20
2023-05-10T22:25:07.120Z,76.20
2023-05-10T22:27:35.504Z,76.20
2023-05-10T22:30:03.823Z,76.30
2023-05-10T22:32:32.795Z,76.50
2023-05-10T22:35:02.348Z,76.50
2023-05-10T22:37:30.590Z,76.60
2023-05-10T22:39:58.718Z,76.70
2023-05-10T22:42:27.049Z,76.80
2023-05-10T22:44:55.169Z,77.60
2023-05-10T22:47:23.281Z,77.10
2023-05-10T22:49:51.381Z,77.10
2023-05-10T22:52:20.849Z,77.00
2023-05-10T22:54:49.006Z,77.30
2023-05-10T22:57:17.284Z,77.60
2023-05-10T22:59:45.470Z,77.90
2023-05-10T23:02:14.145Z,77.90
2023-05-10T23:04:42.516Z,77.80
2023-05-10T23:07:11.448Z,77.90
2023-05-10T23:09:40.952Z,77.90
2023-05-10T23:12:09.080Z,77.80
2023-05-10T23:14:37.190Z,78.00
2023-05-10T23:17:05.375Z,77.90
2023-05-10T23:19:33.481Z,78.00
2023-05-10T23:22:01.609Z,78.10
2023-05-10T23:24:30.134Z,77.90
2023-05-10T23:26:59.600Z,77.10
2023-05-10T23:29:27.774Z,76.80
2023-05-10T23:31:55.975Z,76.50
2023-05-10T23:34:24.208Z,76.60
2023-05-10T23:36:52.324Z,76.30
2023-05-10T23:39:20.738Z,76.00
2023-05-10T23:41:48.936Z,75.90
2023-05-10T23:44:18.431Z,75.70
2023-05-10T23:46:46.677Z,75.50
2023-05-10T23:49:14.799Z,75.60
2023-05-10T23:51:42.906Z,75.70
2023-05-10T23:54:11.098Z,75.90
2023-05-10T23:56:39.294Z,75.90
2023-05-10T23:59:07.394Z,76.10
